Time;durP1;ratioP1;P1;durP2;ratioP2;P2;SDS_P1;SDS_P2;PMS_P1;PMS_P2;Temp;Humidity;BMP_temperature;BMP_pressure;BME280_temperature;BME280_humidity;BME280_pressure;Samples;Min_cycle;Max_cycle;Signal;HPM_P1;HPM_P2
2022/11/13 00:00:47;;;;;;;20.67;18.67;;;;;;;6.29;100.00;101363.66;5067269;28;20208;-78
2022/11/13 00:03:13;;;;;;;20.90;18.87;;;;;;;6.27;100.00;101362.75;5062103;28;20219;-77
2022/11/13 00:05:38;;;;;;;18.90;17.20;;;;;;;6.22;100.00;101354.91;5069054;28;20609;-76
2022/11/13 00:08:03;;;;;;;19.10;17.47;;;;;;;6.25;100.00;101355.84;5068408;28;20682;-76
2022/11/13 00:10:29;;;;;;;20.10;18.20;;;;;;;6.24;100.00;101358.41;5071191;28;20185;-76
2022/11/13 00:12:54;;;;;;;20.30;18.40;;;;;;;6.25;100.00;101355.00;5069676;28;20188;-76
2022/11/13 00:15:20;;;;;;;19.37;17.67;;;;;;;6.25;100.00;101358.44;5063559;28;20177;-76
2022/11/13 00:17:45;;;;;;;18.87;17.17;;;;;;;6.23;100.00;101361.78;5070011;28;20760;-77
2022/11/13 00:20:11;;;;;;;18.43;16.83;;;;;;;6.19;100.00;101352.25;5068662;28;20177;-76
2022/11/13 00:22:36;;;;;;;18.13;16.57;;;;;;;6.16;100.00;101352.16;5063073;28;20217;-77
2022/11/13 00:25:02;;;;;;;16.83;15.43;;;;;;;6.15;100.00;101350.44;5056949;28;20860;-77
2022/11/13 00:27:29;;;;;;;17.07;15.67;;;;;;;6.17;100.00;101352.22;5059620;28;20188;-76
2022/11/13 00:29:55;;;;;;;18.63;16.97;;;;;;;6.17;100.00;101346.19;5063074;28;20189;-77
2022/11/13 00:32:20;;;;;;;17.40;15.90;;;;;;;6.14;100.00;101344.44;5073881;28;20715;-77
2022/11/13 00:34:46;;;;;;;15.60;14.30;;;;;;;6.15;100.00;101347.84;5074464;28;20577;-78
2022/11/13 00:37:11;;;;;;;16.27;14.87;;;;;;;6.14;100.00;101339.28;5079698;28;20223;-76
2022/11/13 00:39:36;;;;;;;16.47;15.07;;;;;;;6.13;100.00;101334.97;5063308;28;20188;-77
2022/11/13 00:42:02;;;;;;;16.80;15.40;;;;;;;6.10;100.00;101335.78;5076200;28;20197;-76
2022/11/13 00:44:27;;;;;;;15.47;14.20;;;;;;;6.09;100.00;101326.31;5067805;28;20210;-77
2022/11/13 00:46:53;;;;;;;14.90;13.70;;;;;;;6.07;100.00;101327.97;5073024;28;20196;-77
2022/11/13 00:49:18;;;;;;;14.00;12.80;;;;;;;6.08;100.00;101321.13;5072078;28;20237;-76
2022/11/13 00:51:43;;;;;;;14.00;12.90;;;;;;;6.12;100.00;101311.81;5081886;28;20204;-76
2022/11/13 00:54:09;;;;;;;13.47;12.27;;;;;;;6.10;100.00;101310.06;5069790;28;20189;-77
2022/11/13 00:56:34;;;;;;;13.97;12.87;;;;;;;6.09;100.00;101313.47;5068995;28;20195;-76
2022/11/13 00:58:59;;;;;;;13.50;12.40;;;;;;;6.08;100.00;101303.13;5066847;28;20169;-75
2022/11/13 01:01:25;;;;;;;14.07;12.97;;;;;;;6.08;100.00;101309.16;5074689;28;20228;-75
2022/11/13 01:03:50;;;;;;;13.40;12.20;;;;;;;6.07;100.00;101303.97;5078381;28;20295;-76
2022/11/13 01:06:20;;;;;;;12.97;11.87;;;;;;;6.07;100.00;101304.84;5073641;28;20187;-77
2022/11/13 01:08:45;;;;;;;13.70;12.50;;;;;;;6.08;100.00;101300.56;5075099;28;20557;-76
2022/11/13 01:11:14;;;;;;;12.70;11.67;;;;;;;6.08;100.00;101308.28;5071465;28;20210;-76
2022/11/13 01:13:41;;;;;;;14.50;13.30;;;;;;;6.08;100.00;101306.59;5079538;28;20171;-78
2022/11/13 01:16:08;;;;;;;14.70;13.50;;;;;;;6.08;100.00;101306.59;5078342;28;20708;-76
2022/11/13 01:18:34;;;;;;;15.57;14.27;;;;;;;6.07;100.00;101301.38;5063623;28;20180;-78
2022/11/13 01:21:04;;;;;;;15.83;14.53;;;;;;;6.03;100.00;101299.59;5074472;28;20221;-75
2022/11/13 01:23:30;;;;;;;14.83;13.53;;;;;;;6.00;100.00;101300.38;5073023;28;20188;-77
2022/11/13 01:26:03;;;;;;;16.43;14.87;;;;;;;6.01;100.00;101303.81;5076921;28;20174;-76
2022/11/13 01:28:29;;;;;;;15.63;14.33;;;;;;;5.99;100.00;101303.72;5067467;28;20219;-77
2022/11/13 01:30:54;;;;;;;15.40;14.10;;;;;;;6.00;100.00;101300.38;5061474;28;20196;-76
2022/11/13 01:33:19;;;;;;;16.13;14.63;;;;;;;5.98;100.00;101303.69;5076120;28;20182;-76
2022/11/13 01:35:45;;;;;;;15.73;14.30;;;;;;;5.92;100.00;101299.28;5068204;28;20239;-77
2022/11/13 01:38:10;;;;;;;15.13;13.87;;;;;;;5.87;100.00;101290.56;5070971;28;20231;-76
2022/11/13 01:40:35;;;;;;;14.97;13.63;;;;;;;5.82;100.00;101285.31;5065787;28;20240;-76
2022/11/13 01:43:21;;;;;;;15.37;14.07;;;;;;;5.82;100.00;101282.75;5065350;28;20187;-77
2022/11/13 01:46:03;;;;;;;15.43;14.03;;;;;;;5.79;100.00;101286.09;5067251;28;20257;-76
2022/11/13 01:48:37;;;;;;;15.37;14.07;;;;;;;5.77;100.00;101272.34;5065476;28;20214;-75
2022/11/13 01:51:11;;;;;;;15.70;14.30;;;;;;;5.78;100.00;101275.78;5056634;28;20618;-76
2022/11/13 01:53:37;;;;;;;15.83;14.43;;;;;;;5.78;100.00;101270.63;5080194;28;20220;-76
2022/11/13 01:56:03;;;;;;;16.10;14.70;;;;;;;5.75;100.00;101268.88;5069467;28;20697;-76
2022/11/13 01:58:28;;;;;;;15.43;14.13;;;;;;;5.71;100.00;101266.19;5066471;28;20184;-77
2022/11/13 02:00:53;;;;;;;15.40;14.00;;;;;;;5.68;100.00;101261.81;5069425;28;20252;-77
2022/11/13 02:03:19;;;;;;;16.03;14.67;;;;;;;5.68;100.00;101264.38;5073129;28;20730;-75
2022/11/13 02:05:45;;;;;;;15.27;13.97;;;;;;;5.67;100.00;101259.22;5063061;28;20233;-77
2022/11/13 02:08:10;;;;;;;14.57;13.37;;;;;;;5.65;100.00;101270.31;5069595;28;20215;-77
2022/11/13 02:10:35;;;;;;;14.97;13.67;;;;;;;5.64;100.00;101265.16;5071008;28;20197;-75
2022/11/13 02:13:01;;;;;;;15.30;14.10;;;;;;;5.63;100.00;101266.81;5073277;28;20214;-77
2022/11/13 02:15:30;;;;;;;15.17;13.97;;;;;;;5.61;100.00;101259.91;5065751;28;20175;-76
2022/11/13 02:17:58;;;;;;;15.23;13.83;;;;;;;5.59;100.00;101266.72;5074035;28;20180;-75
2022/11/13 02:20:51;;;;;;;16.10;14.70;;;;;;;5.59;100.00;101266.72;5072940;28;20232;-76
2022/11/13 02:23:29;;;;;;;15.57;14.23;;;;;;;5.57;100.00;101261.53;5071395;28;20195;-75
2022/11/13 02:25:55;;;;;;;15.53;14.13;;;;;;;5.52;100.00;101257.13;5070079;28;20305;-76
2022/11/13 02:28:20;;;;;;;14.90;13.70;;;;;;;5.50;100.00;101257.06;5067389;28;20316;-76
2022/11/13 02:30:46;;;;;;;14.73;13.43;;;;;;;5.48;100.00;101257.03;5072037;28;20238;-77
2022/11/13 02:33:26;;;;;;;16.10;14.67;;;;;;;5.47;100.00;101254.41;5084151;28;20171;-78
2022/11/13 02:35:51;;;;;;;15.83;14.20;;;;;;;5.44;100.00;101255.19;5075321;28;20239;-78
2022/11/13 02:38:17;;;;;;;14.90;13.63;;;;;;;5.43;100.00;101247.47;5064487;28;20641;-76
2022/11/13 02:40:42;;;;;;;16.03;14.63;;;;;;;5.38;100.00;101252.44;5065070;28;20206;-77
2022/11/13 02:43:08;;;;;;;15.60;14.20;;;;;;;5.37;100.00;101247.28;5065288;28;20187;-76
2022/11/13 02:45:33;;;;;;;14.93;13.73;;;;;;;5.36;100.00;101251.56;5062729;28;20178;-76
2022/11/13 02:48:00;;;;;;;15.47;14.07;;;;;;;5.34;100.00;101251.50;5075190;28;20243;-76
2022/11/13 02:50:25;;;;;;;14.33;13.13;;;;;;;5.31;100.00;101250.53;5067998;28;20249;-77
2022/11/13 02:52:51;;;;;;;15.00;13.70;;;;;;;5.29;100.00;101234.22;5069092;28;20190;-76
2022/11/13 02:55:16;;;;;;;14.90;13.57;;;;;;;5.27;100.00;101243.56;5074923;28;20640;-77
2022/11/13 02:57:41;;;;;;;14.47;13.27;;;;;;;5.29;100.00;101236.78;5065595;28;20184;-77
2022/11/13 03:00:08;;;;;;;14.13;12.97;;;;;;;5.26;100.00;101231.56;5068255;28;20184;-77
2022/11/13 03:02:33;;;;;;;13.90;12.70;;;;;;;5.22;100.00;101230.63;5079571;28;20202;-76
2022/11/13 03:04:58;;;;;;;13.10;12.00;;;;;;;5.21;100.00;101236.56;5056018;28;20550;-78
2022/11/13 03:07:24;;;;;;;12.63;11.53;;;;;;;5.19;100.00;101231.41;5070540;28;20186;-76
2022/11/13 03:09:49;;;;;;;11.63;10.70;;;;;;;5.20;100.00;101229.69;5077613;28;20595;-76
2022/11/13 03:12:14;;;;;;;12.10;11.00;;;;;;;5.18;100.00;101242.50;5070156;28;20289;-77
2022/11/13 03:14:40;;;;;;;12.13;11.03;;;;;;;5.15;100.00;101229.59;5058809;28;20702;-77
2022/11/13 03:17:05;;;;;;;11.33;10.43;;;;;;;5.13;100.00;101225.25;5064770;28;20180;-78
2022/11/13 03:19:30;;;;;;;11.67;10.67;;;;;;;5.10;100.00;101225.16;5080842;28;20181;-76
2022/11/13 03:21:56;;;;;;;12.80;11.73;;;;;;;5.10;100.00;101222.59;5073888;28;20295;-76
2022/11/13 03:24:21;;;;;;;11.47;10.50;;;;;;;5.07;100.00;101223.34;5059196;28;20179;-77
2022/11/13 03:26:46;;;;;;;10.23;9.33;;;;;;;5.03;100.00;101221.53;5067442;28;20266;-75
2022/11/13 03:29:12;;;;;;;11.27;10.33;;;;;;;5.03;100.00;101214.69;5063123;28;20253;-77
2022/11/13 03:31:37;;;;;;;11.83;10.83;;;;;;;5.04;100.00;101207.88;5066287;28;20210;-77
2022/11/13 03:34:03;;;;;;;11.93;10.80;;;;;;;5.02;100.00;101214.66;5074218;28;20697;-78
2022/11/13 03:36:28;;;;;;;10.90;10.00;;;;;;;4.99;100.00;101205.16;5063836;28;20178;-75
2022/11/13 03:38:54;;;;;;;11.30;10.40;;;;;;;5.00;100.00;101204.34;5056535;28;20661;-76
2022/11/13 03:41:21;;;;;;;11.70;10.70;;;;;;;5.00;100.00;101203.47;5072176;28;20211;-75
2022/11/13 03:43:46;;;;;;;10.87;9.97;;;;;;;4.97;100.00;101200.81;5051357;28;20696;-77
2022/11/13 03:46:11;;;;;;;11.37;10.37;;;;;;;4.99;100.00;101206.88;5060480;28;20261;-76
2022/11/13 03:48:37;;;;;;;10.87;9.90;;;;;;;4.99;100.00;101212.00;5075993;28;20303;-75
2022/11/13 03:51:03;;;;;;;11.63;10.73;;;;;;;4.99;100.00;101210.28;5063149;28;20238;-76
2022/11/13 03:53:28;;;;;;;11.10;10.20;;;;;;;5.00;100.00;101211.19;5055489;28;20186;-75
2022/11/13 03:55:53;;;;;;;13.20;11.93;;;;;;;4.99;100.00;101197.47;5072865;28;20203;-76
2022/11/13 03:58:19;;;;;;;18.57;13.67;;;;;;;5.09;100.00;101203.72;5062167;28;20181;-78
2022/11/13 04:00:46;;;;;;;16.73;13.80;;;;;;;5.08;100.00;101193.44;5067136;28;20299;-78
2022/11/13 04:03:11;;;;;;;14.87;13.53;;;;;;;5.07;100.00;101199.41;5067976;28;20178;-76
2022/11/13 04:05:37;;;;;;;16.33;13.40;;;;;;;5.00;100.00;101195.78;5069247;28;20994;-76
2022/11/13 04:08:02;;;;;;;17.13;13.47;;;;;;;4.94;100.00;101181.09;5075147;28;20297;-75
2022/11/13 04:10:28;;;;;;;16.47;15.07;;;;;;;4.91;100.00;101186.13;5073368;28;20174;-76
2022/11/13 04:12:53;;;;;;;16.70;15.00;;;;;;;4.92;100.00;101190.44;5055555;28;20273;-77
2022/11/13 04:15:19;;;;;;;15.80;14.20;;;;;;;4.90;100.00;101197.22;5059607;28;20203;-76
2022/11/13 04:17:44;;;;;;;16.53;14.93;;;;;;;4.88;100.00;101186.03;5068955;28;20195;-76
2022/11/13 04:20:10;;;;;;;16.27;14.87;;;;;;;4.89;100.00;101190.34;5062284;28;20182;-79
2022/11/13 04:22:36;;;;;;;16.13;14.60;;;;;;;4.84;100.00;101190.22;5066976;28;20685;-77
2022/11/13 04:25:01;;;;;;;15.57;14.17;;;;;;;4.82;100.00;101188.44;5077398;28;20190;-75
2022/11/13 04:27:26;;;;;;;15.60;14.23;;;;;;;4.83;100.00;101179.94;5075444;28;20287;-78
2022/11/13 04:29:52;;;;;;;16.30;14.80;;;;;;;4.83;100.00;101183.34;5069786;28;20271;-77
2022/11/13 04:32:17;;;;;;;16.03;14.60;;;;;;;4.82;100.00;101173.91;5070808;28;20216;-77
2022/11/13 04:34:42;;;;;;;15.13;13.73;;;;;;;4.80;100.00;101170.41;5072952;28;20192;-78
2022/11/13 04:37:08;;;;;;;15.23;13.83;;;;;;;4.74;100.00;101167.69;5070822;28;20184;-76
2022/11/13 04:39:33;;;;;;;15.30;13.90;;;;;;;4.77;100.00;101166.91;5063388;28;20222;-76
2022/11/13 04:44:43;;;;;;;15.00;13.57;;;;;;;4.73;100.00;101160.84;5071960;28;20199;-77
2022/11/13 04:47:08;;;;;;;14.40;13.17;;;;;;;4.72;100.00;101164.22;5069875;28;20186;-76
2022/11/13 04:49:34;;;;;;;14.37;13.17;;;;;;;4.70;100.00;101164.16;5067628;28;20822;-75
2022/11/13 04:51:59;;;;;;;14.10;12.80;;;;;;;4.70;100.00;101161.59;5066763;28;20693;-76
2022/11/13 04:54:24;;;;;;;14.10;12.87;;;;;;;4.68;100.00;101159.81;5070326;28;20178;-75
2022/11/13 04:56:50;;;;;;;13.57;12.47;;;;;;;4.61;100.00;101157.91;5063940;28;20186;-76
2022/11/13 04:59:16;;;;;;;13.43;12.33;;;;;;;4.59;100.00;101162.97;5064702;28;20526;-76
2022/11/13 05:01:42;;;;;;;13.53;12.30;;;;;;;4.57;100.00;101151.81;5064557;28;20252;-77
2022/11/13 05:04:11;;;;;;;14.53;13.23;;;;;;;4.57;100.00;101151.81;5068148;28;20194;-76
2022/11/13 05:06:36;;;;;;;13.03;11.93;;;;;;;4.55;100.00;101146.63;5061485;28;20214;-76
2022/11/13 05:09:01;;;;;;;13.07;11.93;;;;;;;4.52;100.00;101153.38;5060520;28;20236;-77
2022/11/13 05:11:27;;;;;;;14.73;13.33;;;;;;;4.52;100.00;101143.13;5069605;28;20207;-77
2022/11/13 05:13:52;;;;;;;13.50;12.30;;;;;;;4.51;100.00;101141.38;5066895;28;20560;-76
2022/11/13 05:16:17;;;;;;;14.20;12.93;;;;;;;4.47;100.00;101139.53;5072000;28;20237;-79
2022/11/13 05:18:43;;;;;;;14.27;12.97;;;;;;;4.45;100.00;101130.94;5060699;28;20586;-76
2022/11/13 05:21:08;;;;;;;14.77;13.53;;;;;;;4.47;100.00;101132.72;5071368;28;20212;-78
2022/11/13 05:23:34;;;;;;;14.17;12.97;;;;;;;4.40;100.00;101125.69;5050710;28;20198;-76
2022/11/13 05:26:12;;;;;;;14.77;13.40;;;;;;;4.34;100.00;101123.81;5066106;28;20190;-76
2022/11/13 05:28:38;;;;;;;13.80;12.60;;;;;;;4.32;100.00;101119.44;5065953;28;20563;-77
2022/11/13 05:31:05;;;;;;;15.03;13.73;;;;;;;4.21;100.00;101114.00;5058440;28;20206;-76
2022/11/13 05:33:30;;;;;;;13.77;12.47;;;;;;;4.18;100.00;101111.34;5058169;28;20233;-76
2022/11/13 05:36:07;;;;;;;13.40;12.27;;;;;;;4.14;100.00;101118.09;5059311;28;20555;-76
2022/11/13 05:38:33;;;;;;;14.40;13.10;;;;;;;4.12;100.00;101123.13;5069765;28;20732;-78
2022/11/13 05:41:05;;;;;;;15.80;14.40;;;;;;;4.11;100.00;101111.16;5075627;28;20206;-75
2022/11/13 05:43:31;;;;;;;14.90;13.60;;;;;;;4.14;100.00;101120.66;5069189;28;20257;-76
2022/11/13 05:46:04;;;;;;;14.63;13.43;;;;;;;4.14;100.00;101118.09;5065750;28;20182;-76
2022/11/13 05:48:29;;;;;;;14.70;13.20;;;;;;;4.11;100.00;101116.28;5074142;28;20722;-76
2022/11/13 05:51:01;;;;;;;14.83;13.50;;;;;;;4.07;100.00;101111.00;5075705;28;20216;-75
2022/11/13 05:53:27;;;;;;;14.93;13.60;;;;;;;3.95;100.00;101103.81;5058291;28;20191;-75
2022/11/13 05:55:52;;;;;;;14.97;13.67;;;;;;;3.92;100.00;101106.31;5065252;28;20939;-76
2022/11/13 05:58:18;;;;;;;14.23;12.83;;;;;;;3.86;100.00;101104.38;5065675;28;20179;-78
2022/11/13 06:00:43;;;;;;;15.13;13.80;;;;;;;3.78;100.00;101100.72;5060346;28;20197;-76
2022/11/13 06:03:08;;;;;;;14.30;13.00;;;;;;;3.77;100.00;101101.53;5062785;28;20291;-75
2022/11/13 06:05:34;;;;;;;14.30;13.00;;;;;;;3.71;100.00;101096.22;5068429;28;20193;-75
2022/11/13 06:08:00;;;;;;;14.77;13.37;;;;;;;3.68;100.00;101098.69;5067584;28;20203;-75
2022/11/13 06:10:25;;;;;;;15.67;14.27;;;;;;;3.63;100.00;101084.06;5065636;28;20648;-76
2022/11/13 06:12:50;;;;;;;16.00;14.50;;;;;;;3.62;100.00;101099.38;5067297;28;20277;-77
2022/11/13 06:15:15;;;;;;;14.53;13.23;;;;;;;3.53;100.00;101094.81;5071438;28;20188;-76
2022/11/13 06:17:44;;;;;;;15.80;14.27;;;;;;;3.53;100.00;101084.59;5068177;28;20186;-76
2022/11/13 06:20:10;;;;;;;15.10;13.80;;;;;;;3.55;100.00;101090.63;5068521;28;20599;-76
2022/11/13 06:22:35;;;;;;;15.60;14.20;;;;;;;3.55;100.00;101075.28;5064461;28;20203;-77
2022/11/13 06:25:00;;;;;;;14.77;13.37;;;;;;;3.50;100.00;101085.34;5070957;28;20208;-76
2022/11/13 06:27:26;;;;;;;16.03;14.43;;;;;;;3.50;100.00;101079.34;5087708;28;20188;-78
2022/11/13 06:29:51;;;;;;;15.53;14.13;;;;;;;3.47;100.00;101074.13;5084476;28;20214;-76
2022/11/13 06:32:17;;;;;;;16.17;14.57;;;;;;;3.47;100.00;101066.47;5073963;28;20205;-77
2022/11/13 06:34:42;;;;;;;16.30;14.80;;;;;;;3.48;100.00;101065.63;5081593;28;20255;-76
2022/11/13 06:37:08;;;;;;;17.00;15.40;;;;;;;3.42;100.00;101065.44;5081263;28;20735;-79
2022/11/13 06:39:33;;;;;;;16.93;15.37;;;;;;;3.40;100.00;101067.94;5072019;28;20253;-77
2022/11/13 06:41:59;;;;;;;17.23;15.60;;;;;;;3.40;100.00;101074.78;5066809;28;20237;-76
2022/11/13 06:44:24;;;;;;;16.80;15.27;;;;;;;3.40;100.00;101073.06;5062060;28;20206;-77
2022/11/13 06:46:49;;;;;;;16.07;14.57;;;;;;;3.39;100.00;101057.69;5060398;28;20198;-76
2022/11/13 06:49:15;;;;;;;16.00;14.40;;;;;;;3.38;100.00;101064.47;5066715;28;20236;-76
2022/11/13 06:51:40;;;;;;;16.13;14.63;;;;;;;3.38;100.00;101067.03;5067567;28;20202;-78
2022/11/13 06:54:05;;;;;;;15.07;13.77;;;;;;;3.35;100.00;101061.78;5060519;28;20200;-75
2022/11/13 06:56:31;;;;;;;16.80;14.93;;;;;;;3.34;100.00;101058.38;5062910;28;20751;-76
2022/11/13 06:58:56;;;;;;;17.07;15.47;;;;;;;3.38;100.00;101058.50;5059562;28;20190;-77
2022/11/13 07:01:24;;;;;;;18.13;16.27;;;;;;;3.38;100.00;101071.28;5060585;28;20199;-76
2022/11/13 07:03:49;;;;;;;17.73;16.03;;;;;;;3.38;100.00;101063.63;5062191;28;20605;-76
2022/11/13 07:06:17;;;;;;;17.03;15.17;;;;;;;3.39;100.00;101057.69;5069208;28;20189;-78
2022/11/13 07:08:44;;;;;;;17.50;15.80;;;;;;;3.40;100.00;101052.59;5056882;28;20207;-78
2022/11/13 07:11:11;;;;;;;17.87;16.17;;;;;;;3.43;100.00;101049.25;5074355;28;20201;-75
2022/11/13 07:13:38;;;;;;;16.87;15.17;;;;;;;3.44;100.00;101053.56;5063805;28;20186;-76
2022/11/13 07:16:04;;;;;;;16.67;15.10;;;;;;;3.44;100.00;101056.13;5063767;28;20259;-76
2022/11/13 07:18:31;;;;;;;15.93;14.53;;;;;;;3.45;100.00;101053.63;5059976;28;20302;-75
2022/11/13 07:20:57;;;;;;;16.83;15.23;;;;;;;3.49;100.00;101059.69;5061067;28;20210;-75
2022/11/13 07:23:23;;;;;;;15.53;14.13;;;;;;;3.48;100.00;101061.38;5056123;28;20296;-76
2022/11/13 07:25:51;;;;;;;15.50;14.00;;;;;;;3.46;100.00;101055.38;5067273;28;20217;-76
2022/11/13 07:28:16;;;;;;;15.33;13.93;;;;;;;3.46;100.00;101060.50;5078811;28;20260;-77
2022/11/13 07:30:42;;;;;;;16.10;14.60;;;;;;;3.51;100.00;101050.38;5064385;28;20220;-79
2022/11/13 07:33:07;;;;;;;15.67;14.13;;;;;;;3.58;100.00;101038.66;5068106;28;20231;-76
2022/11/13 07:35:32;;;;;;;15.70;14.20;;;;;;;3.64;100.00;101039.72;5063659;28;20224;-77
2022/11/13 07:37:58;;;;;;;16.10;14.60;;;;;;;3.73;100.00;101033.13;5078747;28;20301;-77
2022/11/13 07:40:23;;;;;;;16.03;14.53;;;;;;;3.73;100.00;101034.03;5067891;28;20225;-76
2022/11/13 07:42:59;;;;;;;16.43;14.93;;;;;;;3.76;100.00;101051.16;5067008;28;20259;-77
2022/11/13 07:45:26;;;;;;;15.47;13.97;;;;;;;3.79;100.00;101025.66;5072254;28;20201;-78
2022/11/13 07:47:56;;;;;;;15.47;13.97;;;;;;;3.84;100.00;101036.91;5070150;28;20189;-75
2022/11/13 07:50:22;;;;;;;15.83;14.43;;;;;;;3.89;100.00;101019.97;5072814;28;20182;-77
2022/11/13 07:52:47;;;;;;;14.33;13.13;;;;;;;3.91;100.00;101015.78;5075252;28;20210;-76
2022/11/13 07:55:12;;;;;;;15.40;14.00;;;;;;;3.93;100.00;101023.53;5069170;28;20178;-77
2022/11/13 07:57:38;;;;;;;14.73;13.33;;;;;;;3.96;100.00;101005.66;5077403;28;20208;-77
2022/11/13 08:00:04;;;;;;;14.77;13.47;;;;;;;3.95;100.00;101009.06;5067736;28;20194;-76
2022/11/13 08:02:29;;;;;;;14.97;13.67;;;;;;;3.99;100.00;101013.44;5063867;28;20576;-77
2022/11/13 08:04:54;;;;;;;15.53;14.13;;;;;;;4.06;100.00;101027.31;5058157;28;20422;-76
2022/11/13 08:07:20;;;;;;;15.63;14.13;;;;;;;4.06;100.00;101011.94;5059662;28;20189;-77
2022/11/13 08:09:45;;;;;;;15.13;13.73;;;;;;;4.09;100.00;101012.03;5065728;28;20579;-76
2022/11/13 08:12:10;;;;;;;14.07;12.77;;;;;;;4.06;100.00;101010.25;5067795;28;20233;-75
2022/11/13 08:14:36;;;;;;;15.37;13.87;;;;;;;4.12;100.00;101012.97;5055837;28;20298;-77
2022/11/13 08:17:01;;;;;;;14.73;13.23;;;;;;;4.09;100.00;101012.88;5064551;28;20195;-77
2022/11/13 08:19:26;;;;;;;15.57;14.17;;;;;;;4.11;100.00;101003.56;5060804;28;20219;-76
2022/11/13 08:21:51;;;;;;;14.50;13.20;;;;;;;4.08;100.00;101011.16;5072743;28;20220;-76
2022/11/13 08:24:17;;;;;;;14.87;13.40;;;;;;;4.06;100.00;101005.13;5071486;28;20209;-77
2022/11/13 08:26:42;;;;;;;15.13;13.73;;;;;;;4.08;100.00;101002.59;5062453;28;20190;-78
2022/11/13 08:29:08;;;;;;;15.70;14.30;;;;;;;4.12;100.00;100996.75;5064045;28;20278;-77
2022/11/13 08:31:33;;;;;;;16.60;15.00;;;;;;;4.18;100.00;100985.81;5062890;28;20206;-76
2022/11/13 08:33:59;;;;;;;14.77;13.43;;;;;;;4.24;100.00;100997.09;5073675;28;20194;-77
2022/11/13 08:36:24;;;;;;;15.03;13.70;;;;;;;4.31;100.00;101000.72;5072237;28;20256;-78
2022/11/13 08:38:49;;;;;;;14.57;13.27;;;;;;;4.44;100.00;101001.94;5065766;28;20174;-78
2022/11/13 08:41:15;;;;;;;14.73;13.43;;;;;;;4.55;100.00;100990.25;5066773;28;20221;-75
2022/11/13 08:43:40;;;;;;;13.57;12.47;;;;;;;4.70;100.00;100997.47;5072374;28;20199;-75
2022/11/13 08:46:06;;;;;;;13.57;12.37;;;;;;;4.80;100.00;100995.19;5064413;28;20696;-75
2022/11/13 08:48:31;;;;;;;12.10;11.10;;;;;;;4.94;100.00;100995.53;5064147;28;20325;-76
2022/11/13 08:50:57;;;;;;;13.43;12.23;;;;;;;4.99;100.00;100987.09;5063452;28;20254;-76
2022/11/13 08:53:24;;;;;;;13.50;12.30;;;;;;;5.10;100.00;100981.41;5061497;28;20218;-76
2022/11/13 08:55:49;;;;;;;12.37;11.30;;;;;;;5.19;100.00;100986.75;5058340;28;20630;-76
2022/11/13 08:58:14;;;;;;;11.77;10.77;;;;;;;5.28;100.00;100981.84;5061834;28;20203;-75
2022/11/13 09:00:40;;;;;;;12.50;11.40;;;;;;;5.40;100.00;100980.41;5063681;28;20682;-76
2022/11/13 09:03:06;;;;;;;11.17;10.27;;;;;;;5.47;100.00;100975.44;5065330;28;20203;-76
2022/11/13 09:05:31;;;;;;;11.63;10.63;;;;;;;5.51;100.00;100968.66;5063974;28;20227;-77
2022/11/13 09:07:59;;;;;;;12.10;11.20;;;;;;;5.49;100.00;100968.66;5057445;28;20224;-75
2022/11/13 09:10:25;;;;;;;11.27;10.37;;;;;;;5.58;100.00;100952.59;5061311;28;20183;-76
2022/11/13 09:13:00;;;;;;;11.27;10.37;;;;;;;5.63;100.00;100953.53;5060292;28;20209;-76
2022/11/13 09:15:26;;;;;;;11.63;10.63;;;;;;;5.61;100.00;100962.03;5060529;28;20576;-75
2022/11/13 09:17:55;;;;;;;10.83;9.80;;;;;;;5.60;100.00;100953.47;5065444;28;20183;-75
2022/11/13 09:20:20;;;;;;;10.87;9.93;;;;;;;5.66;100.00;100957.91;5069615;28;20241;-75
2022/11/13 09:22:46;;;;;;;10.80;9.90;;;;;;;5.72;100.00;100954.59;5059278;28;20233;-76
2022/11/13 09:25:11;;;;;;;10.57;9.77;;;;;;;5.72;100.00;100947.72;5057714;28;20193;-76
2022/11/13 09:27:36;;;;;;;10.60;9.70;;;;;;;5.76;100.00;100951.22;5060457;28;20192;-78
2022/11/13 09:30:02;;;;;;;10.63;9.73;;;;;;;5.78;100.00;100954.69;5059623;28;20805;-76
2022/11/13 09:32:28;;;;;;;11.63;10.53;;;;;;;5.73;100.00;100943.47;5054978;28;20709;-77
2022/11/13 09:34:53;;;;;;;10.47;9.57;;;;;;;5.75;100.00;100936.66;5062163;28;20187;-75
2022/11/13 09:37:18;;;;;;;10.43;9.63;;;;;;;5.73;100.00;100944.34;5065264;28;20286;-76
2022/11/13 09:39:44;;;;;;;10.23;9.40;;;;;;;5.80;100.00;100940.19;5070816;28;20271;-77
2022/11/13 09:42:21;;;;;;;10.23;9.43;;;;;;;5.82;100.00;100958.22;5063528;28;20209;-77
2022/11/13 09:44:49;;;;;;;11.07;10.17;;;;;;;5.80;100.00;100947.91;5067486;28;20233;-76
2022/11/13 09:47:22;;;;;;;10.70;9.70;;;;;;;5.86;100.00;100939.44;5060488;28;20206;-76
2022/11/13 09:49:58;;;;;;;9.63;8.87;;;;;;;5.84;100.00;100944.56;5053988;28;20644;-74
2022/11/13 09:52:32;;;;;;;10.03;9.23;;;;;;;5.84;100.00;100939.44;5058338;28;20213;-75
2022/11/13 09:54:58;;;;;;;9.87;9.17;;;;;;;5.83;100.00;100947.09;5059151;28;20181;-75
2022/11/13 09:57:39;;;;;;;10.17;9.30;;;;;;;5.86;100.00;100935.19;5063650;28;20195;-76
2022/11/13 10:00:11;;;;;;;10.03;9.23;;;;;;;5.92;100.00;100919.03;5060902;28;20196;-75
2022/11/13 10:02:39;;;;;;;9.47;8.77;;;;;;;6.00;100.00;100922.66;5059330;28;20212;-76
2022/11/13 10:05:19;;;;;;;10.47;9.63;;;;;;;6.08;100.00;100926.25;5059434;28;20565;-76
2022/11/13 10:08:14;;;;;;;8.87;8.17;;;;;;;6.07;100.00;100931.34;5062275;28;20555;-75
2022/11/13 10:10:58;;;;;;;9.70;8.90;;;;;;;6.06;100.00;100924.47;5054043;28;20195;-76
2022/11/13 10:13:30;;;;;;;9.53;8.73;;;;;;;6.09;100.00;100919.41;5059966;28;20197;-77
2022/11/13 10:16:05;;;;;;;10.00;9.20;;;;;;;6.16;100.00;100910.09;5060925;28;20191;-77
2022/11/13 10:18:35;;;;;;;10.40;9.60;;;;;;;6.17;100.00;100912.72;5068785;28;20187;-78
2022/11/13 10:21:36;;;;;;;11.07;10.10;;;;;;;6.27;100.00;100913.75;5058100;28;20244;-77
2022/11/13 10:24:09;;;;;;;9.67;8.97;;;;;;;6.30;100.00;100918.94;5057428;28;20202;-75
2022/11/13 10:26:35;;;;;;;9.57;8.60;;;;;;;6.35;100.00;100901.06;5059203;28;20187;-77
2022/11/13 10:29:10;;;;;;;9.30;8.53;;;;;;;6.36;100.00;100897.63;5061118;28;20689;-77
2022/11/13 10:31:46;;;;;;;9.30;8.60;;;;;;;6.46;100.00;100890.94;5054292;28;20332;-78
2022/11/13 10:34:13;;;;;;;9.47;8.77;;;;;;;6.53;100.00;100896.22;5060169;28;20191;-76
2022/11/13 10:36:44;;;;;;;8.87;8.20;;;;;;;6.67;100.00;100880.16;5056331;28;20633;-75
2022/11/13 10:39:09;;;;;;;9.60;8.73;;;;;;;6.71;100.00;100869.97;5060466;28;20183;-76
2022/11/13 10:41:50;;;;;;;9.63;8.80;;;;;;;6.76;100.00;100880.31;5057224;28;20292;-75
2022/11/13 10:44:29;;;;;;;8.73;8.03;;;;;;;6.79;100.00;100875.22;5050739;28;20326;-74
2022/11/13 10:47:14;;;;;;;8.80;8.00;;;;;;;6.86;100.00;100855.59;5058696;28;20201;-75
2022/11/13 10:49:40;;;;;;;8.70;8.00;;;;;;;6.93;100.00;100856.56;5061657;28;20260;-74
2022/11/13 10:52:17;;;;;;;10.70;9.80;;;;;;;6.98;100.00;100842.03;5053182;28;20212;-73
2022/11/13 10:54:43;;;;;;;9.47;8.53;;;;;;;7.11;100.00;100845.66;5061808;28;20193;-77
2022/11/13 10:57:24;;;;;;;8.20;7.60;;;;;;;7.15;100.00;100837.16;5060661;28;20192;-77
2022/11/13 10:59:50;;;;;;;8.93;8.23;;;;;;;7.19;100.00;100836.34;5061206;28;20185;-75
2022/11/13 11:02:18;;;;;;;9.10;8.30;;;;;;;7.27;100.00;100836.44;5065893;28;20287;-76
2022/11/13 11:04:44;;;;;;;8.13;7.53;;;;;;;7.36;100.00;100828.84;5058392;28;20594;-75
2022/11/13 11:07:14;;;;;;;8.43;7.83;;;;;;;7.47;100.00;100827.28;5063944;28;20276;-76
2022/11/13 11:09:41;;;;;;;7.77;7.17;;;;;;;7.65;100.00;100827.47;5052797;28;20217;-75
2022/11/13 11:12:22;;;;;;;8.67;7.87;;;;;;;7.74;100.00;100820.72;5055073;28;20215;-76
2022/11/13 11:14:59;;;;;;;8.57;7.87;;;;;;;7.83;100.00;100819.09;5057742;28;20984;-74